sensor_id;sensor_type;location;lat;lon;timestamp;P1;durP1;ratioP1;P2;durP2;ratioP2
18661;SDS011;61528;49.456;11.098;2023-02-15T14:16:40;23.63;;;15.10;;
18661;SDS011;61528;49.456;11.098;2023-02-15T14:21:36;21.53;;;15.87;;
18661;SDS011;61528;49.456;11.098;2023-02-15T14:26:47;23.43;;;16.30;;
18661;SDS011;61528;49.456;11.098;2023-02-15T14:31:46;23.00;;;16.73;;
18661;SDS011;61528;49.456;11.098;2023-02-15T14:34:22;22.87;;;16.50;;
18661;SDS011;61528;49.456;11.098;2023-02-15T14:36:50;26.00;;;17.43;;
18661;SDS011;61528;49.456;11.098;2023-02-15T14:42:25;25.27;;;17.50;;
18661;SDS011;61528;49.456;11.098;2023-02-15T14:44:57;26.80;;;17.63;;
18661;SDS011;61528;49.456;11.098;2023-02-15T14:47:38;25.40;;;17.90;;
18661;SDS011;61528;49.456;11.098;2023-02-15T14:55:36;26.40;;;17.80;;
18661;SDS011;61528;49.456;11.098;2023-02-15T14:58:09;25.70;;;16.93;;
18661;SDS011;61528;49.456;11.098;2023-02-15T15:00:37;22.77;;;16.60;;
18661;SDS011;61528;49.456;11.098;2023-02-15T15:03:09;26.57;;;17.10;;
18661;SDS011;61528;49.456;11.098;2023-02-15T15:05:37;27.53;;;18.40;;
18661;SDS011;61528;49.456;11.098;2023-02-15T15:08:21;24.60;;;16.80;;
18661;SDS011;61528;49.456;11.098;2023-02-15T15:10:48;25.60;;;17.50;;
18661;SDS011;61528;49.456;11.098;2023-02-15T15:16:47;30.13;;;18.30;;
18661;SDS011;61528;49.456;11.098;2023-02-15T15:18:47;26.43;;;17.97;;
18661;SDS011;61528;49.456;11.098;2023-02-15T15:23:59;25.40;;;17.73;;
18661;SDS011;61528;49.456;11.098;2023-02-15T15:26:27;26.43;;;17.87;;
18661;SDS011;61528;49.456;11.098;2023-02-15T15:28:55;25.90;;;18.47;;
18661;SDS011;61528;49.456;11.098;2023-02-15T15:31:33;27.17;;;17.57;;
18661;SDS011;61528;49.456;11.098;2023-02-15T15:49:24;29.17;;;18.73;;
18661;SDS011;61528;49.456;11.098;2023-02-15T15:51:53;26.30;;;18.30;;
18661;SDS011;61528;49.456;11.098;2023-02-15T15:54:23;29.53;;;18.70;;
18661;SDS011;61528;49.456;11.098;2023-02-15T15:56:55;27.67;;;17.87;;
18661;SDS011;61528;49.456;11.098;2023-02-15T15:59:24;26.70;;;18.00;;
18661;SDS011;61528;49.456;11.098;2023-02-15T16:01:50;26.10;;;17.23;;
18661;SDS011;61528;49.456;11.098;2023-02-15T16:04:27;25.83;;;17.77;;
18661;SDS011;61528;49.456;11.098;2023-02-15T16:06:55;26.43;;;17.60;;
18661;SDS011;61528;49.456;11.098;2023-02-15T16:09:25;25.10;;;17.30;;
18661;SDS011;61528;49.456;11.098;2023-02-15T16:12:00;26.67;;;17.10;;
18661;SDS011;61528;49.456;11.098;2023-02-15T16:14:32;25.83;;;17.47;;
18661;SDS011;61528;49.456;11.098;2023-02-15T16:17:03;25.90;;;17.13;;
18661;SDS011;61528;49.456;11.098;2023-02-15T16:19:33;27.67;;;17.53;;
18661;SDS011;61528;49.456;11.098;2023-02-15T16:22:01;24.63;;;16.60;;
18661;SDS011;61528;49.456;11.098;2023-02-15T16:24:37;27.63;;;17.73;;
18661;SDS011;61528;49.456;11.098;2023-02-15T16:29:31;25.80;;;17.07;;
18661;SDS011;61528;49.456;11.098;2023-02-15T16:32:05;24.77;;;17.10;;
18661;SDS011;61528;49.456;11.098;2023-02-15T16:34:32;26.17;;;16.93;;
18661;SDS011;61528;49.456;11.098;2023-02-15T16:37:11;28.43;;;17.93;;
18661;SDS011;61528;49.456;11.098;2023-02-15T16:39:40;26.60;;;17.33;;
18661;SDS011;61528;49.456;11.098;2023-02-15T16:42:07;25.73;;;16.67;;
18661;SDS011;61528;49.456;11.098;2023-02-15T16:44:33;26.60;;;16.83;;
18661;SDS011;61528;49.456;11.098;2023-02-15T16:46:59;27.97;;;17.47;;
18661;SDS011;61528;49.456;11.098;2023-02-15T16:49:27;28.40;;;17.10;;
18661;SDS011;61528;49.456;11.098;2023-02-15T16:51:57;30.20;;;17.97;;
18661;SDS011;61528;49.456;11.098;2023-02-15T16:54:25;30.70;;;18.77;;
18661;SDS011;61528;49.456;11.098;2023-02-15T16:56:52;29.20;;;17.10;;
18661;SDS011;61528;49.456;11.098;2023-02-15T16:59:19;27.13;;;18.40;;
18661;SDS011;61528;49.456;11.098;2023-02-15T17:01:48;34.47;;;18.23;;
18661;SDS011;61528;49.456;11.098;2023-02-15T17:07:00;28.27;;;18.37;;
18661;SDS011;61528;49.456;11.098;2023-02-15T17:09:28;33.53;;;18.70;;
18661;SDS011;61528;49.456;11.098;2023-02-15T17:11:54;33.60;;;19.90;;
18661;SDS011;61528;49.456;11.098;2023-02-15T17:14:31;33.33;;;20.50;;
18661;SDS011;61528;49.456;11.098;2023-02-15T17:19:32;34.60;;;20.07;;
18661;SDS011;61528;49.456;11.098;2023-02-15T17:22:14;39.43;;;21.67;;
18661;SDS011;61528;49.456;11.098;2023-02-15T17:24:43;37.83;;;21.63;;
18661;SDS011;61528;49.456;11.098;2023-02-15T17:29:40;37.83;;;20.83;;
18661;SDS011;61528;49.456;11.098;2023-02-15T17:32:29;35.93;;;19.87;;
18661;SDS011;61528;49.456;11.098;2023-02-15T17:40:25;38.50;;;21.07;;
18661;SDS011;61528;49.456;11.098;2023-02-15T17:42:52;39.40;;;19.97;;
18661;SDS011;61528;49.456;11.098;2023-02-15T17:45:18;36.83;;;20.70;;
18661;SDS011;61528;49.456;11.098;2023-02-15T17:47:45;34.60;;;19.30;;
18661;SDS011;61528;49.456;11.098;2023-02-15T17:50:20;37.50;;;20.23;;
18661;SDS011;61528;49.456;11.098;2023-02-15T17:52:47;38.57;;;20.20;;
18661;SDS011;61528;49.456;11.098;2023-02-15T17:55:14;38.37;;;19.73;;
18661;SDS011;61528;49.456;11.098;2023-02-15T17:58:00;39.80;;;20.43;;
18661;SDS011;61528;49.456;11.098;2023-02-15T18:00:27;35.47;;;19.30;;
18661;SDS011;61528;49.456;11.098;2023-02-15T18:03:12;35.77;;;19.93;;
18661;SDS011;61528;49.456;11.098;2023-02-15T18:05:57;38.63;;;20.37;;
18661;SDS011;61528;49.456;11.098;2023-02-15T18:08:42;36.53;;;19.53;;
18661;SDS011;61528;49.456;11.098;2023-02-15T18:11:27;34.40;;;19.30;;
18661;SDS011;61528;49.456;11.098;2023-02-15T18:14:05;36.97;;;19.87;;
18661;SDS011;61528;49.456;11.098;2023-02-15T18:16:36;40.13;;;21.13;;
18661;SDS011;61528;49.456;11.098;2023-02-15T18:19:05;42.00;;;21.77;;
18661;SDS011;61528;49.456;11.098;2023-02-15T18:21:35;41.00;;;20.67;;
18661;SDS011;61528;49.456;11.098;2023-02-15T18:24:01;41.80;;;21.07;;
18661;SDS011;61528;49.456;11.098;2023-02-15T18:26:27;43.67;;;22.17;;
18661;SDS011;61528;49.456;11.098;2023-02-15T18:28:53;41.90;;;21.17;;
18661;SDS011;61528;49.456;11.098;2023-02-15T18:31:20;47.43;;;23.83;;
18661;SDS011;61528;49.456;11.098;2023-02-15T18:33:47;44.90;;;21.77;;
18661;SDS011;61528;49.456;11.098;2023-02-15T18:36:23;45.77;;;23.37;;
18661;SDS011;61528;49.456;11.098;2023-02-15T18:38:52;44.63;;;22.17;;
18661;SDS011;61528;49.456;11.098;2023-02-15T18:41:19;47.37;;;23.33;;
18661;SDS011;61528;49.456;11.098;2023-02-15T18:43:46;47.27;;;23.87;;
18661;SDS011;61528;49.456;11.098;2023-02-15T18:46:13;47.80;;;23.63;;
18661;SDS011;61528;49.456;11.098;2023-02-15T18:48:40;48.53;;;23.60;;
18661;SDS011;61528;49.456;11.098;2023-02-15T18:51:19;44.27;;;23.50;;
18661;SDS011;61528;49.456;11.098;2023-02-15T18:53:46;50.13;;;24.07;;
18661;SDS011;61528;49.456;11.098;2023-02-15T18:56:14;49.57;;;24.20;;
18661;SDS011;61528;49.456;11.098;2023-02-15T18:58:41;52.33;;;25.20;;
18661;SDS011;61528;49.456;11.098;2023-02-15T19:01:12;48.60;;;24.23;;
18661;SDS011;61528;49.456;11.098;2023-02-15T19:03:42;47.83;;;23.77;;
18661;SDS011;61528;49.456;11.098;2023-02-15T19:06:11;47.60;;;22.77;;
18661;SDS011;61528;49.456;11.098;2023-02-15T19:08:38;46.93;;;23.50;;
18661;SDS011;61528;49.456;11.098;2023-02-15T19:11:04;43.73;;;22.70;;
18661;SDS011;61528;49.456;11.098;2023-02-15T19:13:31;51.73;;;24.90;;
18661;SDS011;61528;49.456;11.098;2023-02-15T19:15:57;47.03;;;24.67;;
18661;SDS011;61528;49.456;11.098;2023-02-15T19:18:23;46.83;;;24.17;;
18661;SDS011;61528;49.456;11.098;2023-02-15T19:20:50;46.60;;;23.50;;
18661;SDS011;61528;49.456;11.098;2023-02-15T19:23:17;46.07;;;24.23;;
18661;SDS011;61528;49.456;11.098;2023-02-15T19:25:45;46.87;;;24.20;;
18661;SDS011;61528;49.456;11.098;2023-02-15T19:28:16;43.60;;;22.73;;
18661;SDS011;61528;49.456;11.098;2023-02-15T19:30:43;46.67;;;23.10;;
18661;SDS011;61528;49.456;11.098;2023-02-15T19:33:14;47.53;;;23.57;;
18661;SDS011;61528;49.456;11.098;2023-02-15T19:35:41;50.17;;;23.20;;
18661;SDS011;61528;49.456;11.098;2023-02-15T19:38:10;45.63;;;22.07;;
18661;SDS011;61528;49.456;11.098;2023-02-15T19:40:39;44.43;;;22.60;;
18661;SDS011;61528;49.456;11.098;2023-02-15T19:43:09;46.00;;;23.83;;
18661;SDS011;61528;49.456;11.098;2023-02-15T19:45:38;48.70;;;23.23;;
18661;SDS011;61528;49.456;11.098;2023-02-15T19:48:05;48.60;;;23.50;;
18661;SDS011;61528;49.456;11.098;2023-02-15T19:50:32;41.00;;;22.67;;
18661;SDS011;61528;49.456;11.098;2023-02-15T19:52:59;46.07;;;22.27;;
18661;SDS011;61528;49.456;11.098;2023-02-15T19:55:28;47.37;;;23.10;;
18661;SDS011;61528;49.456;11.098;2023-02-15T19:57:55;46.13;;;22.80;;
18661;SDS011;61528;49.456;11.098;2023-02-15T20:00:23;46.60;;;22.97;;
18661;SDS011;61528;49.456;11.098;2023-02-15T20:02:51;49.60;;;24.17;;
18661;SDS011;61528;49.456;11.098;2023-02-15T20:05:18;50.23;;;24.40;;
18661;SDS011;61528;49.456;11.098;2023-02-15T20:07:48;46.70;;;23.27;;
18661;SDS011;61528;49.456;11.098;2023-02-15T20:10:15;47.37;;;24.07;;
18661;SDS011;61528;49.456;11.098;2023-02-15T20:12:42;41.70;;;21.20;;
18661;SDS011;61528;49.456;11.098;2023-02-15T20:15:22;44.73;;;23.07;;
18661;SDS011;61528;49.456;11.098;2023-02-15T20:17:49;45.47;;;22.67;;
18661;SDS011;61528;49.456;11.098;2023-02-15T20:20:17;45.97;;;21.57;;
18661;SDS011;61528;49.456;11.098;2023-02-15T20:22:43;46.53;;;23.20;;
18661;SDS011;61528;49.456;11.098;2023-02-15T20:25:21;45.67;;;21.80;;
18661;SDS011;61528;49.456;11.098;2023-02-15T20:27:49;46.67;;;22.23;;
18661;SDS011;61528;49.456;11.098;2023-02-15T20:30:16;44.33;;;22.63;;
18661;SDS011;61528;49.456;11.098;2023-02-15T20:32:43;44.20;;;21.93;;
18661;SDS011;61528;49.456;11.098;2023-02-15T20:35:16;42.47;;;21.00;;
18661;SDS011;61528;49.456;11.098;2023-02-15T20:37:46;42.67;;;22.70;;
18661;SDS011;61528;49.456;11.098;2023-02-15T20:40:21;41.33;;;21.53;;
18661;SDS011;61528;49.456;11.098;2023-02-15T20:42:47;39.93;;;20.47;;
18661;SDS011;61528;49.456;11.098;2023-02-15T20:45:24;38.63;;;20.07;;
18661;SDS011;61528;49.456;11.098;2023-02-15T20:47:50;41.60;;;21.03;;
18661;SDS011;61528;49.456;11.098;2023-02-15T20:50:27;39.47;;;19.80;;
18661;SDS011;61528;49.456;11.098;2023-02-15T20:52:54;43.33;;;22.67;;
18661;SDS011;61528;49.456;11.098;2023-02-15T20:55:22;41.00;;;20.73;;
18661;SDS011;61528;49.456;11.098;2023-02-15T20:57:49;40.47;;;20.80;;
18661;SDS011;61528;49.456;11.098;2023-02-15T21:00:19;40.23;;;20.57;;
18661;SDS011;61528;49.456;11.098;2023-02-15T21:02:56;40.93;;;20.97;;
18661;SDS011;61528;49.456;11.098;2023-02-15T21:05:23;38.40;;;20.00;;
18661;SDS011;61528;49.456;11.098;2023-02-15T21:07:50;40.27;;;20.63;;
18661;SDS011;61528;49.456;11.098;2023-02-15T21:10:25;41.43;;;20.97;;
18661;SDS011;61528;49.456;11.098;2023-02-15T21:12:51;38.33;;;20.60;;
18661;SDS011;61528;49.456;11.098;2023-02-15T21:15:23;41.23;;;20.87;;
18661;SDS011;61528;49.456;11.098;2023-02-15T21:17:50;43.03;;;21.07;;
18661;SDS011;61528;49.456;11.098;2023-02-15T21:20:16;40.17;;;20.33;;
18661;SDS011;61528;49.456;11.098;2023-02-15T21:22:42;42.10;;;20.83;;
18661;SDS011;61528;49.456;11.098;2023-02-15T21:25:12;45.23;;;22.77;;
18661;SDS011;61528;49.456;11.098;2023-02-15T21:27:39;44.60;;;21.10;;
18661;SDS011;61528;49.456;11.098;2023-02-15T21:30:14;50.10;;;23.43;;
18661;SDS011;61528;49.456;11.098;2023-02-15T21:32:41;47.87;;;22.93;;
18661;SDS011;61528;49.456;11.098;2023-02-15T21:35:09;48.47;;;24.47;;
18661;SDS011;61528;49.456;11.098;2023-02-15T21:37:38;49.77;;;22.97;;
18661;SDS011;61528;49.456;11.098;2023-02-15T21:40:15;47.10;;;22.43;;
18661;SDS011;61528;49.456;11.098;2023-02-15T21:42:42;43.70;;;21.17;;
18661;SDS011;61528;49.456;11.098;2023-02-15T21:45:47;49.13;;;22.67;;
18661;SDS011;61528;49.456;11.098;2023-02-15T21:48:32;49.30;;;23.57;;
18661;SDS011;61528;49.456;11.098;2023-02-15T21:50:58;47.43;;;22.70;;
18661;SDS011;61528;49.456;11.098;2023-02-15T21:53:43;47.57;;;22.30;;
18661;SDS011;61528;49.456;11.098;2023-02-15T21:56:12;49.60;;;23.47;;
18661;SDS011;61528;49.456;11.098;2023-02-15T21:58:39;53.03;;;24.43;;
18661;SDS011;61528;49.456;11.098;2023-02-15T22:01:05;51.07;;;25.07;;
18661;SDS011;61528;49.456;11.098;2023-02-15T22:03:32;46.30;;;22.47;;
18661;SDS011;61528;49.456;11.098;2023-02-15T22:05:59;47.03;;;23.77;;
18661;SDS011;61528;49.456;11.098;2023-02-15T22:08:25;51.23;;;23.57;;
18661;SDS011;61528;49.456;11.098;2023-02-15T22:10:53;45.40;;;21.90;;
18661;SDS011;61528;49.456;11.098;2023-02-15T22:15:52;46.97;;;22.20;;
18661;SDS011;61528;49.456;11.098;2023-02-15T22:18:22;44.30;;;22.47;;
18661;SDS011;61528;49.456;11.098;2023-02-15T22:20:50;40.63;;;20.43;;
18661;SDS011;61528;49.456;11.098;2023-02-15T22:23:16;43.83;;;21.10;;
18661;SDS011;61528;49.456;11.098;2023-02-15T22:25:44;44.90;;;20.90;;
18661;SDS011;61528;49.456;11.098;2023-02-15T22:28:13;41.77;;;20.93;;
18661;SDS011;61528;49.456;11.098;2023-02-15T22:30:41;43.33;;;21.10;;
18661;SDS011;61528;49.456;11.098;2023-02-15T22:33:14;42.00;;;21.57;;
18661;SDS011;61528;49.456;11.098;2023-02-15T22:35:45;40.93;;;20.17;;
18661;SDS011;61528;49.456;11.098;2023-02-15T22:38:12;39.63;;;20.27;;
18661;SDS011;61528;49.456;11.098;2023-02-15T22:40:38;43.17;;;20.87;;
18661;SDS011;61528;49.456;11.098;2023-02-15T22:43:04;44.07;;;21.17;;
18661;SDS011;61528;49.456;11.098;2023-02-15T22:45:31;43.30;;;21.60;;
18661;SDS011;61528;49.456;11.098;2023-02-15T22:48:00;42.37;;;20.47;;
18661;SDS011;61528;49.456;11.098;2023-02-15T22:50:27;41.00;;;21.03;;
18661;SDS011;61528;49.456;11.098;2023-02-15T22:52:54;45.43;;;22.60;;
18661;SDS011;61528;49.456;11.098;2023-02-15T22:55:22;44.17;;;20.77;;
18661;SDS011;61528;49.456;11.098;2023-02-15T22:57:49;39.60;;;21.07;;
18661;SDS011;61528;49.456;11.098;2023-02-15T23:00:20;43.67;;;19.97;;
18661;SDS011;61528;49.456;11.098;2023-02-15T23:02:47;43.30;;;20.70;;
18661;SDS011;61528;49.456;11.098;2023-02-15T23:05:17;43.67;;;20.73;;
18661;SDS011;61528;49.456;11.098;2023-02-15T23:07:45;43.27;;;21.17;;
18661;SDS011;61528;49.456;11.098;2023-02-15T23:10:11;41.97;;;20.67;;
18661;SDS011;61528;49.456;11.098;2023-02-15T23:12:45;42.70;;;19.77;;
18661;SDS011;61528;49.456;11.098;2023-02-15T23:15:30;41.87;;;20.23;;
18661;SDS011;61528;49.456;11.098;2023-02-15T23:17:58;39.33;;;19.90;;
18661;SDS011;61528;49.456;11.098;2023-02-15T23:20:26;43.17;;;21.33;;
18661;SDS011;61528;49.456;11.098;2023-02-15T23:22:52;40.77;;;19.67;;
18661;SDS011;61528;49.456;11.098;2023-02-15T23:25:19;42.93;;;20.70;;
18661;SDS011;61528;49.456;11.098;2023-02-15T23:27:49;42.47;;;21.03;;
18661;SDS011;61528;49.456;11.098;2023-02-15T23:30:21;40.07;;;19.87;;
18661;SDS011;61528;49.456;11.098;2023-02-15T23:32:47;43.53;;;20.37;;
18661;SDS011;61528;49.456;11.098;2023-02-15T23:35:14;44.20;;;20.70;;
18661;SDS011;61528;49.456;11.098;2023-02-15T23:37:40;44.73;;;21.30;;
18661;SDS011;61528;49.456;11.098;2023-02-15T23:40:18;42.73;;;21.97;;
18661;SDS011;61528;49.456;11.098;2023-02-15T23:43:03;42.27;;;20.07;;
18661;SDS011;61528;49.456;11.098;2023-02-15T23:45:31;41.10;;;20.07;;
18661;SDS011;61528;49.456;11.098;2023-02-15T23:47:59;37.90;;;20.73;;
18661;SDS011;61528;49.456;11.098;2023-02-15T23:50:44;39.00;;;19.47;;
18661;SDS011;61528;49.456;11.098;2023-02-15T23:53:10;43.20;;;20.60;;
18661;SDS011;61528;49.456;11.098;2023-02-15T23:55:37;44.93;;;19.90;;
18661;SDS011;61528;49.456;11.098;2023-02-15T23:58:10;39.13;;;19.97;;
